Latest Weather Observations for Ernabella/Pukatja

IDS60801

Issued at 8:35 pm CDT Tuesday 21 October 2014 (issued every 30 minutes, with the page automatically refreshed every 10 minutes)

About weather observations | Map of weather stations | Latest weather observations for SA | Other Formats
Station Details ID: 016097 Name: PUKATJA Lat: -26.26 Lon: 132.18 Height: 703.2 m
Data from the previous 72 hours. | See also: Recent months at Ernabella/Pukatja
Date/Time
CDT
Temp
°C
App
Temp
°C
Dew
Point
Rel
Hum
%
Delta-T
°C
Wind Press
QNH
hPa
Press
MSL
hPa
Rain
since 9 am
mm
Dir
 
Spd
km/h
Gust
km/h
Spd
kts
Gust
kts
21/08:30pm 32.5 26.7 -4.4 9 17.2 SSW 17 24 9 13 1018.1 - 0.0
21/08:00pm 31.9 26.5 -4.9 9 16.9 SW 15 19 8 10 1017.8 - 0.0
21/07:30pm 33.4 28.9 -7.0 7 18.2 WSW 9 13 5 7 1017.4 - 0.0
21/07:00pm 34.4 29.2 -6.3 7 18.7 WSW 13 17 7 9 1017.2 - 0.0
21/06:30pm 35.6 29.1 -7.5 6 19.6 SW 19 26 10 14 1017.0 - 0.0
21/06:00pm 36.0 29.6 -7.2 6 19.7 NW 19 30 10 16 1016.7 1013.4 0.0
21/05:30pm 36.7 32.2 -6.7 6 20.1 WNW 9 24 5 13 1016.7 - 0.0
21/05:00pm 35.5 29.2 -5.5 7 19.2 NNW 19 28 10 15 1017.0 - 0.0
21/04:30pm 36.1 31.8 -5.1 7 19.5 N 9 30 5 16 1017.1 - 0.0
21/04:00pm 37.3 29.6 -6.3 6 20.4 W 26 39 14 21 1017.2 - 0.0
21/03:30pm 37.7 30.1 -6.0 6 20.6 W 26 35 14 19 1017.3 - 0.0
21/03:00pm 36.9 30.0 -6.5 6 20.2 NW 22 33 12 18 1017.7 1014.4 0.0
21/02:30pm 36.5 28.8 -6.8 6 20.0 NW 26 37 14 20 1018.2 - 0.0
21/02:00pm 36.4 29.0 -6.9 6 20.0 NNW 24 37 13 20 1018.7 - 0.0
21/01:30pm 35.8 27.3 -7.3 6 19.7 NNW 30 41 16 22 1019.0 - 0.0
21/01:00pm 35.2 27.2 -5.7 7 19.1 NNW 28 43 15 23 1019.5 - 0.0
21/12:30pm 34.7 26.1 -4.4 8 18.5 N 32 43 17 23 1019.9 - 0.0
21/12:15pm 34.0 26.1 -4.9 8 18.2 N 28 46 15 25 1020.1 - 0.0
21/12:00pm 34.3 26.4 -4.6 8 18.3 N 28 44 15 24 1020.3 1017.0 0.0
21/11:30am 33.1 24.4 -5.5 8 17.8 NNW 32 46 17 25 1020.6 - 0.0
21/11:19am 32.9 24.7 -4.1 9 17.4 NNW 30 48 16 26 1020.6 - 0.0
21/11:00am 32.8 24.2 -4.2 9 17.4 N 32 41 17 22 1020.8 - 0.0
21/10:30am 31.8 24.3 -4.9 9 16.9 N 26 35 14 19 1020.8 - 0.0
21/10:00am 30.9 23.8 -4.2 10 16.2 N 24 35 13 19 1020.8 - 0.0
21/09:30am 30.5 23.4 -4.5 10 16.1 N 24 39 13 21 1020.7 - 0.0
21/09:00am 28.8 22.8 -3.4 12 14.8 N 19 28 10 15 1020.4 1017.1 0.0
21/08:30am 27.1 21.0 -3.7 13 14.0 N 19 28 10 15 1020.2 - 0.0
21/08:00am 26.0 19.8 -3.5 14 13.3 N 20 32 11 17 1019.8 - 0.0
21/07:30am 25.4 19.2 -3.1 15 12.9 N 20 30 11 16 1019.5 - 0.0
21/07:00am 24.4 18.4 -3.0 16 12.3 NNE 19 26 10 14 1019.0 - 0.0
21/06:30am 25.1 19.1 -3.3 15 12.8 NNE 19 30 10 16 1018.6 - 0.0
21/06:00am 25.2 19.0 -3.2 15 12.8 NNE 20 35 11 19 1018.1 1014.8 0.0
21/05:30am 24.4 18.1 -3.9 15 12.5 NNE 20 32 11 17 1018.1 - 0.0
21/05:00am 24.7 18.4 -3.6 15 12.6 NNE 20 28 11 15 1017.9 - 0.0
21/04:30am 24.4 18.3 -3.9 15 12.5 NNE 19 24 10 13 1017.8 - 0.0
21/04:00am 24.8 18.6 -4.5 14 12.8 NNE 19 28 10 15 1017.8 - 0.0
21/03:30am 24.9 18.6 -5.4 13 13.1 NNE 19 26 10 14 1017.8 - 0.0
21/03:00am 25.1 19.2 -5.2 13 13.1 NNE 17 22 9 12 1017.9 1014.6 0.0
21/02:30am 24.4 18.8 -6.8 12 13.0 NNE 15 19 8 10 1018.2 - 0.0
21/02:00am 24.1 18.8 -7.0 12 12.9 NE 13 17 7 9 1018.5 - 0.0
21/01:30am 23.9 18.5 -8.3 11 13.0 E 13 15 7 8 1018.6 - 0.0
21/01:00am 24.7 19.5 -10.3 9 13.8 E 11 15 6 8 1018.7 - 0.0
21/12:30am 26.0 20.7 -12.4 7 14.7 E 11 15 6 8 1019.0 - 0.0
21/12:00am 25.1 19.7 -13.1 7 14.3 E 11 13 6 7 1019.2 1015.9 0.0
 
Date/Time
CDT
Temp
°C
App
Temp
°C
Dew
Point
Rel
Hum
%
Delta-T
°C
Wind Press
QNH
hPa
Press
MSL
hPa
Rain
since 9 am
mm
Dir
 
Spd
km/h
Gust
km/h
Spd
kts
Gust
kts
20/11:30pm 24.4 20.3 -13.6 7 14.0 N 4 7 2 4 1019.2 - 0.0
20/11:00pm 25.2 21.6 -13.0 7 14.4 N 2 7 1 4 1019.1 - 0.0
20/10:30pm 24.0 19.6 -13.9 7 13.8 N 6 9 3 5 1019.0 - 0.0
20/10:00pm 25.0 20.3 -15.0 6 14.5 NE 7 9 4 5 1018.8 - 0.0
20/09:30pm 25.5 21.0 -14.7 6 14.7 NE 6 9 3 5 1018.5 - 0.0
20/09:00pm 26.5 21.9 -16.1 5 15.3 NE 6 7 3 4 1018.1 1014.8 0.0
20/08:30pm 28.9 24.8 -14.5 5 16.5 N 4 6 2 3 1017.8 - 0.0
20/08:00pm 30.6 25.5 -16.0 4 17.6 NNW 9 11 5 6 1017.4 - 0.0
20/07:30pm 33.4 27.8 -17.5 3 19.3 N 11 20 6 11 1017.0 - 0.0
20/07:00pm 34.7 28.4 -16.7 3 20.0 NNW 15 22 8 12 1016.5 - 0.0
20/06:30pm 35.3 28.6 -16.3 3 20.3 NNW 17 26 9 14 1016.4 - 0.0
20/06:00pm 35.7 28.9 -20.7 2 20.9 NNW 17 28 9 15 1016.3 1013.0 0.0
20/05:30pm 35.5 28.7 -20.9 2 20.8 NNW 17 28 9 15 1016.4 - 0.0
20/05:00pm 35.1 27.9 -21.1 2 20.5 N 19 28 10 15 1016.5 - 0.0
20/04:30pm 35.9 29.4 -20.6 2 21.0 N 15 22 8 12 1016.6 - 0.0
20/04:00pm 35.3 28.5 -21.0 2 20.6 N 17 30 9 16 1016.8 - 0.0
20/03:30pm 36.0 30.3 -20.5 2 21.0 NE 11 30 6 16 1017.3 - 0.0
20/03:00pm 36.1 29.6 -20.5 2 21.1 NW 15 20 8 11 1017.7 1014.4 0.0
20/02:30pm 36.2 29.2 -15.7 3 20.8 N 19 24 10 13 1018.2 - 0.0
20/02:00pm 35.5 27.9 -16.1 3 20.4 NNW 22 35 12 19 1018.8 - 0.0
20/01:30pm 35.8 29.2 -15.9 3 20.6 NW 17 37 9 20 1019.1 - 0.0
20/01:00pm 34.5 27.0 -13.3 4 19.6 NNE 22 39 12 21 1019.5 - 0.0
20/12:30pm 35.0 27.2 -13.0 4 19.9 N 24 35 13 19 1019.8 - 0.0
20/12:00pm 33.5 25.6 -14.0 4 19.0 N 24 37 13 20 1020.4 1017.1 0.0
20/11:30am 32.7 25.3 -11.8 5 18.4 N 22 35 12 19 1020.6 - 0.0
20/11:00am 33.1 25.8 -11.5 5 18.6 N 22 39 12 21 1020.9 - 0.0
20/10:30am 31.5 23.5 -10.4 6 17.5 N 26 39 14 21 1020.9 - 0.0
20/10:00am 29.8 22.2 -9.7 7 16.5 NNE 24 35 13 19 1021.0 - 0.0
20/09:30am 27.8 20.2 -9.4 8 15.3 NNE 24 32 13 17 1021.1 - 0.0
20/09:00am 27.6 22.1 -9.6 8 15.2 E 13 17 7 9 1020.8 1017.5 0.0
20/08:30am 24.9 19.3 -11.6 8 14.0 E 13 15 7 8 1020.9 - 0.0
20/08:00am 22.9 17.5 -13.1 8 13.2 ESE 11 13 6 7 1020.8 - 0.0
20/07:30am 18.3 12.5 -13.8 10 11.0 E 13 13 7 7 1020.5 - 0.0
20/07:00am 18.7 13.3 -14.8 9 11.3 E 11 13 6 7 1020.3 - 0.0
20/06:30am 19.3 14.2 -15.7 8 11.7 E 9 11 5 6 1019.9 - 0.0
20/06:00am 19.9 14.4 -15.3 8 11.9 E 11 13 6 7 1019.6 1016.3 0.0
20/05:30am 20.9 14.6 -16.2 7 12.5 E 15 17 8 9 1019.1 - 0.0
20/05:00am 20.8 14.1 -16.2 7 12.4 E 17 20 9 11 1019.0 - 0.0
20/04:30am 21.9 15.7 -15.4 7 12.9 E 15 17 8 9 1018.8 - 0.0
20/04:00am 21.0 15.1 -16.1 7 12.5 E 13 17 7 9 1018.7 - 0.0
20/03:30am 21.7 15.5 -15.6 7 12.8 E 15 19 8 10 1018.5 - 0.0
20/03:00am 21.6 15.0 -15.6 7 12.8 ESE 17 19 9 10 1018.6 1015.3 0.0
20/02:30am 19.9 13.6 -16.9 7 12.1 E 15 17 8 9 1018.8 - 0.0
20/02:00am 22.4 16.1 -16.9 6 13.3 E 15 17 8 9 1019.1 - 0.0
20/01:30am 22.3 16.0 -17.0 6 13.3 E 15 17 8 9 1019.2 - 0.0
20/01:00am 23.1 16.8 -16.4 6 13.6 E 15 19 8 10 1019.4 - 0.0
20/12:30am 23.3 17.0 -16.2 6 13.7 E 15 17 8 9 1019.5 - 0.0
20/12:00am 23.2 16.9 -16.3 6 13.6 E 15 17 8 9 1019.6 1016.3 0.0
 
Date/Time
CDT
Temp
°C
App
Temp
°C
Dew
Point
Rel
Hum
%
Delta-T
°C
Wind Press
QNH
hPa
Press
MSL
hPa
Rain
since 9 am
mm
Dir
 
Spd
km/h
Gust
km/h
Spd
kts
Gust
kts
19/11:30pm 21.9 16.3 -17.3 6 13.1 E 11 13 6 7 1019.8 - 0.0
19/11:00pm 23.2 16.8 -18.5 5 13.9 E 15 17 8 9 1019.7 - 0.0
19/10:30pm 22.7 16.8 -16.7 6 13.4 E 13 15 7 8 1019.5 - 0.0
19/10:00pm 23.2 17.6 -18.5 5 13.9 E 11 15 6 8 1019.3 - 0.0
19/09:30pm 23.5 17.9 -18.3 5 14.0 E 11 13 6 7 1018.9 - 0.0
19/09:00pm 25.2 19.5 -19.7 4 14.9 E 11 13 6 7 1018.7 1015.4 0.0
19/08:30pm 27.0 21.4 -18.4 4 15.8 E 11 13 6 7 1018.2 - 0.0
19/08:00pm 28.7 23.8 -20.6 3 16.9 NNE 7 9 4 5 1017.9 - 0.0
19/07:30pm 31.7 26.3 -23.3 2 18.7 NE 9 15 5 8 1017.5 - 0.0
19/07:00pm 32.8 26.7 -22.6 2 19.3 N 13 19 7 10 1017.4 - 0.0
19/06:30pm 33.5 26.6 -22.1 2 19.7 NNW 17 24 9 13 1017.2 - 0.0
19/06:00pm 33.9 27.4 -21.9 2 19.9 ENE 15 22 8 12 1017.1 1013.7 0.0
19/05:30pm 33.4 28.4 -22.2 2 19.6 NNW 7 13 4 7 1017.0 - 0.0
19/05:00pm 34.2 28.1 -21.7 2 20.0 NE 13 19 7 10 1017.2 - 0.0
19/04:30pm 34.1 28.4 -21.7 2 20.0 NNE 11 24 6 13 1017.5 - 0.0
19/04:00pm 34.0 26.6 -21.8 2 19.9 NW 20 32 11 17 1017.7 - 0.0
19/03:30pm 32.8 27.0 -22.6 2 19.3 N 11 19 6 10 1018.1 - 0.0
19/03:00pm 32.8 26.7 -22.6 2 19.3 NNE 13 20 7 11 1018.5 1015.2 0.0
19/02:30pm 34.5 27.3 -21.5 2 20.2 NW 19 50 10 27 1018.7 - 0.0
19/02:00pm 32.6 26.6 -18.0 3 18.9 N 13 24 7 13 1019.2 - 0.0
19/01:30pm 33.0 26.3 -17.8 3 19.1 NW 17 30 9 16 1019.5 - 0.0
19/01:00pm 32.4 25.3 -18.2 3 18.8 NNW 19 30 10 16 1019.8 - 0.0
19/12:30pm 31.3 24.1 -15.5 4 18.0 N 20 30 11 16 1020.4 - 0.0
19/12:00pm 30.9 23.9 -15.8 4 17.7 N 19 30 10 16 1020.7 1017.4 0.0
19/11:30am 29.4 22.5 -14.1 5 16.8 N 19 33 10 18 1021.3 - 0.0
19/11:00am 28.8 20.9 -14.5 5 16.5 NNE 24 32 13 17 1021.4 - 0.0
19/10:30am 27.7 20.1 -15.3 5 15.9 NNE 22 33 12 18 1021.6 - 0.0
19/10:00am 26.0 18.1 -14.3 6 14.9 NNE 24 35 13 19 1021.8 - 0.0
19/09:30am 24.9 17.5 -13.2 7 14.2 NNE 22 32 12 17 1021.9 - 0.0
19/09:00am 23.8 18.0 -14.0 7 13.7 NNE 13 26 7 14 1021.7 1018.4 0.0
19/08:30am 20.7 16.3 -13.3 9 12.1 NNE 6 11 3 6 1021.4 - 0.0
19/08:00am 19.7 15.6 -14.0 9 11.7 E 4 7 2 4 1021.2 - 0.0
19/07:30am 18.9 14.3 -13.3 10 11.2 NE 7 13 4 7 1021.0 - 0.0
19/07:00am 18.2 13.3 -12.7 11 10.8 NE 9 15 5 8 1020.7 - 0.0
19/06:30am 18.6 13.6 -13.6 10 11.1 NNE 9 15 5 8 1020.5 - 0.0
19/06:00am 17.1 12.5 -13.6 11 10.3 NNE 7 11 4 6 1020.1 1016.8 0.0
19/05:30am 17.5 13.8 -14.4 10 10.6 N 2 6 1 3 1019.7 - 0.0
19/05:00am 17.2 13.1 -14.6 10 10.5 SSE 4 6 2 3 1019.5 - 0.0
19/04:30am 18.6 14.1 -14.8 9 11.2 ESE 6 7 3 4 1019.7 - 0.0
19/04:00am 18.7 12.9 -14.8 9 11.3 E 13 17 7 9 1019.6 - 0.0
19/03:30am 19.7 13.5 -15.4 8 11.8 ESE 15 19 8 10 1019.7 - 0.0
19/03:00am 19.2 13.0 -14.4 9 11.4 ESE 15 19 8 10 1019.8 1016.6 0.0
19/02:30am 18.7 12.8 -16.2 8 11.4 ESE 13 17 7 9 1020.1 - 0.0
19/02:00am 19.5 13.3 -15.6 8 11.7 ESE 15 17 8 9 1020.3 - 0.0
19/01:30am 18.1 11.9 -15.2 9 11.0 ESE 15 17 8 9 1020.4 - 0.0
19/01:00am 20.2 14.4 -15.1 8 12.0 ESE 13 15 7 8 1020.7 - 0.0
19/12:30am 17.9 12.0 -15.4 9 11.0 E 13 13 7 7 1020.7 - 0.0
19/12:00am 18.5 13.0 -16.3 8 11.3 E 11 13 6 7 1020.8 1017.5 0.0
 
Date/Time
CDT
Temp
°C
App
Temp
°C
Dew
Point
Rel
Hum
%
Delta-T
°C
Wind Press
QNH
hPa
Press
MSL
hPa
Rain
since 9 am
mm
Dir
 
Spd
km/h
Gust
km/h
Spd
kts
Gust
kts
18/11:30pm 18.9 13.4 -16.0 8 11.5 E 11 13 6 7 1020.9 - 0.0
18/11:00pm 20.7 15.2 -16.3 7 12.4 E 11 13 6 7 1020.7 - 0.0
18/10:30pm 21.6 15.7 -15.6 7 12.8 E 13 15 7 8 1020.6 - 0.0
18/10:00pm 22.5 17.4 -15.0 7 13.2 ENE 9 15 5 8 1020.5 - 0.0
18/09:30pm 22.6 17.1 -14.9 7 13.2 E 11 13 6 7 1020.3 - 0.0
18/09:00pm 23.2 17.8 -14.5 7 13.4 E 11 13 6 7 1020.1 1016.8 0.0

Other Formats:

Comma delimited format used in spreadsheet applications
http://www.bom.gov.au/fwo/IDS60801/IDS60801.94474.axf

JavaScript Object Notation format (JSON) in row-major order
http://www.bom.gov.au/fwo/IDS60801/IDS60801.94474.json